Latest Weather Observations for Parafield

IDS60901

Issued at 8:11 am CDT Friday 22 January 2021 (issued every 10 minutes, with the page automatically refreshed every 10 minutes)

About weather observations | Map of Adelaide area stations | Latest observations for Adelaide area | Other Formats
Station Details ID: 023013 Name: PARAFIELD AIRPORT Lat: -34.80 Lon: 138.63 Height: 9.5 m
Data from the previous 72 hours. | See also: Recent months at Parafield
Date/Time
CDT
Temp
°C
App
Temp
°C
Dew
Point
°C
Rel
Hum
%
Delta-T
°C
Wind Press
QNH
hPa
Press
MSL
hPa
Rain since
9am
mm
Dir  Spd
km/h
Gust
km/h
Spd
kts
Gust
kts
22/08:00am 20.2 18.6 2.5 31 8.2 CALM 0 0 0 0 1011.5 1011.5 0.0
22/07:30am 17.2 15.9 4.2 42 6.1 CALM 0 0 0 0 1011.3 1011.3 0.0
22/07:00am 14.2 13.1 5.0 54 4.3 CALM 0 0 0 0 1011.0 1011.0 0.0
22/06:30am 13.2 11.8 3.3 51 4.4 CALM 0 0 0 0 1010.8 1010.8 0.0
22/06:00am 13.2 10.0 3.0 50 4.5 E 9 11 5 6 1010.6 1010.6 0.0
22/05:30am 14.6 13.4 4.6 51 4.7 CALM 0 0 0 0 1010.2 1010.2 0.0
22/05:00am 13.3 10.7 3.1 50 4.5 SW 6 7 3 4 1009.9 1009.9 0.0
22/04:30am 14.8 13.3 3.0 45 5.3 CALM 0 0 0 0 1009.4 1009.4 0.0
22/04:00am 15.7 14.2 3.2 43 5.7 CALM 0 0 0 0 1009.5 1009.5 0.0
22/03:30am 16.4 14.7 1.7 37 6.5 CALM 0 0 0 0 1009.6 1009.6 0.0
22/03:00am 17.5 14.9 3.4 39 6.5 WNW 6 9 3 5 1009.6 1009.6 0.0
22/02:30am 16.7 13.7 4.1 43 5.9 W 9 11 5 6 1009.7 1009.7 0.0
22/02:00am 18.6 15.7 1.6 32 7.7 NW 6 7 3 4 1009.4 1009.4 0.0
22/01:30am 19.1 16.2 1.6 31 7.9 NNW 6 7 3 4 1009.6 1009.6 0.0
22/01:00am 19.0 16.3 2.4 33 7.6 ENE 6 7 3 4 1009.9 1009.9 0.0
22/12:30am 19.6 16.2 -0.4 26 8.7 ESE 7 9 4 5 1010.3 1010.3 0.0
22/12:00am 20.8 17.1 0.1 25 9.2 SE 9 13 5 7 1010.5 1010.5 0.0
 
Date/Time
CDT
Temp
°C
App
Temp
°C
Dew
Point
°C
Rel
Hum
%
Delta-T
°C
Wind Press
QNH
hPa
Press
MSL
hPa
Rain since
9am
mm
Dir  Spd
km/h
Gust
km/h
Spd
kts
Gust
kts
21/11:30pm 21.9 17.9 0.4 24 9.7 S 11 13 6 7 1010.7 1010.7 0.0
21/11:00pm 22.4 18.8 0.3 23 10.0 SE 9 15 5 8 1010.5 1010.5 0.0
21/10:30pm 23.2 19.2 0.3 22 10.5 ESE 11 13 6 7 1010.6 1010.6 0.0
21/10:00pm 23.3 19.1 1.6 24 10.2 SSE 13 15 7 8 1010.5 1010.5 0.0
21/09:30pm 24.5 20.6 1.4 22 10.9 SE 11 13 6 7 1010.0 1010.0 0.0
21/09:00pm 26.1 21.5 1.4 20 11.8 SSE 15 19 8 10 1009.8 1009.8 0.0
21/08:30pm 27.2 23.0 1.6 19 12.3 SW 13 20 7 11 1009.4 1009.4 0.0
21/08:00pm 29.5 24.8 1.1 16 13.8 SW 15 20 8 11 1009.4 1009.4 0.0
21/07:30pm 30.1 24.3 -1.3 13 14.7 SW 19 26 10 14 1009.2 1009.2 0.0
21/07:00pm 31.3 24.3 -0.4 13 15.2 SSW 26 37 14 20 1008.8 1008.8 0.0
21/06:30pm 33.0 26.4 -0.2 12 16.2 SSW 24 30 13 16 1008.6 1008.6 0.0
21/06:00pm 33.6 26.9 -0.9 11 16.7 SW 24 33 13 18 1008.6 1008.6 0.0
21/05:30pm 34.4 28.8 -3.0 9 17.5 SW 17 24 9 13 1008.7 1008.7 0.0
21/05:00pm 34.6 28.4 -4.4 8 17.9 SSW 19 26 10 14 1008.9 1008.9 0.0
21/04:30pm 34.4 28.2 -3.0 9 17.5 SSW 20 26 11 14 1009.2 1009.2 0.0
21/04:00pm 35.6 30.1 -2.1 9 18.1 SW 17 24 9 13 1009.4 1009.4 0.0
21/03:30pm 35.1 29.4 -4.1 8 18.1 WSW 17 26 9 14 1009.7 1009.7 0.0
21/03:00pm 35.0 30.2 -2.6 9 17.8 SW 13 22 7 12 1010.0 1010.0 0.0
21/02:30pm 34.3 29.4 -3.1 9 17.5 SW 13 20 7 11 1010.4 1010.4 0.0
21/02:00pm 34.4 28.6 -1.6 10 17.3 WSW 19 26 10 14 1010.9 1010.9 0.0
21/01:30pm 33.9 27.9 -3.4 9 17.3 WSW 19 32 10 17 1011.2 1011.2 0.0
21/01:00pm 33.9 28.2 -3.4 9 17.3 W 17 26 9 14 1011.6 1011.6 0.0
21/12:30pm 33.1 27.5 -2.6 10 16.7 W 17 22 9 12 1011.9 1011.9 0.0
21/12:00pm 33.7 28.6 -2.1 10 16.9 WSW 15 22 8 12 1012.2 1012.2 0.0
21/11:30am 32.4 28.3 -3.1 10 16.4 NW 9 15 5 8 1012.3 1012.3 0.0
21/11:00am 31.7 28.1 -2.3 11 15.8 WNW 7 13 4 7 1012.5 1012.5 0.0
21/10:30am 30.4 27.0 -2.2 12 15.0 NNW 6 13 3 7 1012.7 1012.7 0.0
21/10:00am 28.6 25.1 -2.5 13 14.1 NNW 6 11 3 6 1013.1 1013.1 0.0
21/09:30am 27.1 24.0 -2.7 14 13.3 N 4 7 2 4 1013.3 1013.3 0.0
21/09:00am 26.0 23.7 -2.6 15 12.6 CALM 0 7 0 4 1013.4 1013.4 0.0
21/08:30am 23.3 21.4 0.4 22 10.5 CALM 0 0 0 0 1013.6 1013.6 0.0
21/08:00am 20.6 18.8 1.5 28 8.7 CALM 0 0 0 0 1013.6 1013.6 0.0
21/07:30am 17.8 16.2 2.5 36 7.0 CALM 0 0 0 0 1013.5 1013.5 0.0
21/07:00am 15.1 13.6 3.0 44 5.5 CALM 0 0 0 0 1013.4 1013.4 0.0
21/06:30am 15.6 14.2 3.4 44 5.6 CALM 0 0 0 0 1013.3 1013.3 0.0
21/06:00am 15.2 13.9 4.3 48 5.1 CALM 0 0 0 0 1013.1 1013.1 0.0
21/05:30am 15.4 13.8 2.2 41 5.9 CALM 0 0 0 0 1013.0 1013.0 0.0
21/05:00am 14.9 13.4 2.8 44 5.4 CALM 0 0 0 0 1012.9 1012.9 0.0
21/04:30am 14.8 13.2 2.7 44 5.4 CALM 0 0 0 0 1012.8 1012.8 0.0
21/04:00am 15.8 14.1 1.9 39 6.2 CALM 0 0 0 0 1012.9 1012.9 0.0
21/03:30am 16.6 13.4 0.7 34 6.9 E 7 9 4 5 1013.1 1013.1 0.0
21/03:00am 18.0 15.2 1.9 34 7.3 NW 6 6 3 3 1013.4 1013.4 0.0
21/02:30am 18.2 16.5 1.7 33 7.4 CALM 0 2 0 1 1013.5 1013.5 0.0
21/02:00am 18.5 16.6 0.6 30 7.9 CALM 0 2 0 1 1013.8 1013.8 0.0
21/01:30am 20.7 17.4 -1.1 23 9.5 NW 6 9 3 5 1014.1 1014.1 0.0
21/01:00am 20.7 17.3 -0.6 24 9.3 W 7 11 4 6 1014.2 1014.2 0.0
21/12:30am 22.2 19.7 -1.1 21 10.3 WSW 2 7 1 4 1014.2 1014.2 0.0
21/12:00am 21.8 18.4 -0.8 22 10.0 E 7 15 4 8 1014.3 1014.3 0.0
 
Date/Time
CDT
Temp
°C
App
Temp
°C
Dew
Point
°C
Rel
Hum
%
Delta-T
°C
Wind Press
QNH
hPa
Press
MSL
hPa
Rain since
9am
mm
Dir  Spd
km/h
Gust
km/h
Spd
kts
Gust
kts
20/11:30pm 24.0 20.1 -1.8 18 11.4 SSE 9 13 5 7 1014.6 1014.6 0.0
20/11:00pm 24.8 21.0 -0.4 19 11.5 SE 9 15 5 8 1014.7 1014.7 0.0
20/10:30pm 24.2 20.2 0.5 21 10.9 SE 11 17 6 9 1014.9 1014.9 0.0
20/10:00pm 25.0 20.8 1.8 22 11.0 SSE 13 22 7 12 1015.1 1015.1 0.0
20/09:30pm 25.0 22.4 3.0 24 10.7 SE 6 13 3 7 1015.0 1015.0 0.0
20/09:00pm 26.9 22.0 2.1 20 12.0 ESE 17 20 9 11 1014.7 1014.7 0.0
20/08:30pm 28.1 21.8 -0.9 15 13.4 ESE 22 28 12 15 1014.5 1014.5 0.0
20/08:00pm 29.5 24.1 1.1 16 13.8 S 19 22 10 12 1014.3 1014.3 0.0
20/07:30pm 30.4 25.2 -0.1 14 14.6 SSW 17 22 9 12 1014.3 1014.3 0.0
20/07:00pm 30.7 25.1 0.2 14 14.7 SSW 19 24 10 13 1014.4 1014.4 0.0
20/06:30pm 30.6 24.6 1.0 15 14.4 SW 22 28 12 15 1014.5 1014.5 0.0
20/06:00pm 31.0 24.8 -0.6 13 15.0 SW 22 28 12 15 1014.5 1014.5 0.0
20/05:30pm 32.1 26.0 0.2 13 15.5 SW 22 28 12 15 1014.6 1014.6 0.0
20/05:00pm 32.3 26.4 -0.7 12 15.8 SW 20 26 11 14 1014.8 1014.8 0.0
20/04:30pm 32.0 26.2 0.2 13 15.4 WSW 20 26 11 14 1015.0 1015.0 0.0
20/04:00pm 32.9 27.4 0.9 13 15.8 SW 19 30 10 16 1015.4 1015.4 0.0
20/03:30pm 32.3 26.6 0.4 13 15.6 SW 20 32 11 17 1015.8 1015.8 0.0
20/03:00pm 32.1 26.3 0.2 13 15.5 WSW 20 32 11 17 1016.0 1016.0 0.0
20/02:30pm 32.9 28.0 1.9 14 15.6 SSW 17 24 9 13 1016.3 1016.3 0.0
20/02:00pm 32.2 27.3 2.3 15 15.1 SW 17 26 9 14 1016.8 1016.8 0.0
20/01:30pm 31.8 28.2 -2.3 11 15.8 SW 7 15 4 8 1017.3 1017.3 0.0
20/01:00pm 31.7 27.7 -2.3 11 15.8 WSW 9 15 5 8 1017.7 1017.7 0.0
20/12:30pm 31.1 27.3 -0.5 13 15.0 WSW 9 17 5 9 1018.2 1018.2 0.0
20/12:00pm 30.4 26.7 -0.1 14 14.5 W 9 15 5 8 1018.5 1018.5 0.0
20/11:30am 28.6 25.2 -0.5 15 13.6 N 7 15 4 8 1018.9 1018.9 0.0
20/11:00am 28.4 24.6 -0.7 15 13.6 N 9 17 5 9 1019.2 1019.2 0.0
20/10:30am 28.0 24.7 -0.1 16 13.2 NE 7 17 4 9 1019.5 1019.5 0.0
20/10:00am 27.0 23.1 1.4 19 12.3 E 11 20 6 11 1019.7 1019.7 0.0
20/09:30am 25.7 21.1 1.8 21 11.4 E 15 20 8 11 1019.9 1019.9 0.0
20/09:00am 24.0 20.4 2.8 25 10.2 ENE 11 22 6 12 1020.2 1020.2 0.0
20/08:30am 23.0 18.8 1.9 25 9.9 E 13 20 7 11 1020.2 1020.2 0.0
20/08:00am 21.2 17.8 2.0 28 8.9 NE 9 15 5 8 1020.0 1020.0 0.0
20/07:30am 19.9 17.7 3.2 33 7.8 W 4 9 2 5 1019.9 1019.9 0.0
20/07:00am 19.1 16.0 3.7 36 7.3 ENE 9 20 5 11 1019.7 1019.7 0.0
20/06:30am 18.2 15.9 4.7 41 6.4 NNW 6 9 3 5 1019.4 1019.4 0.0
20/06:00am 17.8 15.6 5.1 43 6.1 W 6 9 3 5 1019.2 1019.2 0.0
20/05:30am 18.8 13.2 5.3 41 6.5 E 24 32 13 17 1018.7 1018.7 0.0
20/05:00am 19.0 13.4 5.5 41 6.6 E 24 35 13 19 1018.6 1018.6 0.0
20/04:30am 19.3 13.3 5.4 40 6.8 E 26 35 14 19 1018.3 1018.3 0.0
20/04:00am 19.6 13.2 5.3 39 7.0 E 28 39 15 21 1018.2 1018.2 0.0
20/03:30am 19.9 13.1 5.2 38 7.2 ESE 30 39 16 21 1018.3 1018.3 0.0
20/03:00am 20.5 14.3 4.1 34 7.9 ESE 26 37 14 20 1018.4 1018.4 0.0
20/02:58am 20.5 14.6 4.1 34 7.9 ESE 24 37 13 20 1018.4 1018.4 0.0
20/02:30am 19.7 16.0 4.2 36 7.4 ESE 13 20 7 11 1018.6 1018.6 0.0
20/02:00am 20.6 13.9 3.8 33 8.0 ESE 28 39 15 21 1018.6 1018.6 0.0
20/01:30am 20.7 15.2 3.9 33 8.0 SE 22 32 12 17 1018.9 1018.9 0.0
20/01:00am 20.9 14.9 3.6 32 8.3 ESE 24 33 13 18 1018.9 1018.9 0.0
20/12:30am 20.3 14.5 4.4 35 7.7 ESE 24 33 13 18 1019.1 1019.1 0.0
20/12:00am 19.8 14.5 5.1 38 7.2 ESE 22 30 12 16 1019.5 1019.5 0.0
 
Date/Time
CDT
Temp
°C
App
Temp
°C
Dew
Point
°C
Rel
Hum
%
Delta-T
°C
Wind Press
QNH
hPa
Press
MSL
hPa
Rain since
9am
mm
Dir  Spd
km/h
Gust
km/h
Spd
kts
Gust
kts
19/11:30pm 19.2 16.1 5.6 41 6.7 SSE 11 28 6 15 1019.7 1019.7 0.0
19/11:00pm 19.0 16.8 5.1 40 6.7 SSE 6 11 3 6 1019.8 1019.8 0.0
19/10:30pm 19.1 17.0 5.9 42 6.5 SSE 6 11 3 6 1019.9 1019.9 0.0
19/10:00pm 19.9 17.1 7.0 43 6.5 SE 11 15 6 8 1019.9 1019.9 0.0
19/09:30pm 20.2 17.7 6.5 41 6.9 SSE 9 24 5 13 1019.7 1019.7 0.0
19/09:00pm 21.1 17.6 7.3 41 7.1 SE 15 24 8 13 1019.5 1019.5 0.0
19/08:30pm 21.6 19.0 7.8 41 7.2 SE 11 17 6 9 1019.2 1019.2 0.0
19/08:00pm 24.0 19.6 6.7 33 8.9 ESE 19 30 10 16 1018.9 1018.9 0.0
19/07:30pm 25.3 20.2 6.0 29 9.9 ESE 22 32 12 17 1018.8 1018.8 0.0
19/07:00pm 26.4 20.8 5.4 26 10.8 SE 24 32 13 17 1018.6 1018.6 0.0
19/06:30pm 27.0 20.8 4.1 23 11.5 SE 26 35 14 19 1018.4 1018.4 0.0
19/06:00pm 28.0 22.7 5.0 23 11.8 SE 22 30 12 16 1018.4 1018.4 0.0
19/05:30pm 28.4 23.0 4.6 22 12.2 SE 22 35 12 19 1018.3 1018.3 0.0
19/05:00pm 28.6 23.5 4.2 21 12.4 SE 20 32 11 17 1018.4 1018.4 0.0
19/04:30pm 28.8 24.3 4.3 21 12.5 E 17 26 9 14 1018.6 1018.6 0.0
19/04:00pm 29.5 25.7 5.6 22 12.5 SE 15 30 8 16 1018.8 1018.8 0.0
19/03:30pm 28.8 24.3 6.2 24 11.9 SSE 19 28 10 15 1019.4 1019.4 0.0
19/03:00pm 28.4 25.3 7.1 26 11.3 SSE 13 20 7 11 1019.9 1019.9 0.0
19/02:30pm 27.8 25.0 7.1 27 11.0 SSE 11 20 6 11 1020.1 1020.1 0.0
19/02:00pm 26.8 23.8 7.8 30 10.2 SSE 13 22 7 12 1020.6 1020.6 0.0
19/01:30pm 26.7 23.8 8.2 31 9.9 SSE 13 20 7 11 1021.0 1021.0 0.0
19/01:00pm 24.5 21.6 8.0 35 8.8 SE 13 22 7 12 1021.5 1021.5 0.0
19/12:30pm 23.9 21.2 9.1 39 8.0 SSE 13 19 7 10 1022.1 1022.0 0.0
19/12:00pm 22.7 20.2 9.8 44 7.0 SSE 13 22 7 12 1022.6 1022.5 0.0
19/11:30am 21.2 18.3 9.8 48 6.1 SE 15 26 8 14 1023.0 1022.9 0.0
19/11:00am 19.8 16.6 10.0 53 5.3 SE 17 28 9 15 1023.4 1023.3 0.0
19/10:30am 18.5 15.7 10.1 58 4.5 ESE 15 22 8 12 1023.9 1023.8 0.0
19/10:00am 18.6 16.8 10.7 60 4.3 SE 11 20 6 11 1023.9 1023.8 0.0
19/09:30am 17.4 15.1 10.5 64 3.7 ESE 13 20 7 11 1024.2 1024.1 0.0
19/09:00am 17.4 14.4 10.8 65 3.5 SE 17 24 9 13 1024.1 1024.0 0.0
19/08:32am 16.4 13.4 10.5 68 3.1 ESE 17 20 9 11 1023.9 1023.8 0.0
19/08:30am 16.4 13.4 10.5 68 3.1 ESE 17 20 9 11 1023.9 1023.8 0.0

Latest Capital City Observations: Canberra | Sydney | Melbourne | Brisbane | Adelaide | Perth | Hobart | Darwin

Other formats

Comma delimited format used in spreadsheet applications
http://www.bom.gov.au/fwo/IDS60901/IDS60901.95677.axf

JavaScript Object Notation format (JSON) in row-major order
http://www.bom.gov.au/fwo/IDS60901/IDS60901.95677.json

Data quality

Most of these data are generated automatically and are frequently updated. Quality checks on data are not normally performed. It is possible for incorrect values to appear. Refer to information at About Latest Weather Observations and please check the disclaimer before using these data.